createdAt,value
2018-10-21T00:01:18.462Z,60.22
2018-10-21T00:03:47.413Z,60.22
2018-10-21T00:06:16.333Z,59.98
2018-10-21T00:08:47.626Z,59.55
2018-10-21T00:11:16.589Z,59.24
2018-10-21T00:13:45.522Z,59.36
2018-10-21T00:16:14.454Z,58.79
2018-10-21T00:18:43.414Z,58.79
2018-10-21T00:21:12.383Z,58.65
2018-10-21T00:23:41.295Z,59.12
2018-10-21T00:26:10.226Z,58.57
2018-10-21T00:28:41.650Z,58.42
2018-10-21T00:31:12.260Z,58.48
2018-10-21T00:33:41.467Z,58.81
2018-10-21T00:36:10.377Z,59.11
2018-10-21T00:38:39.330Z,58.46
2018-10-21T00:41:08.253Z,58.41
2018-10-21T00:43:37.169Z,58.31
2018-10-21T00:46:07.330Z,58.17
2018-10-21T00:48:36.413Z,58.52
2018-10-21T00:51:05.585Z,58.29
2018-10-21T00:53:34.493Z,58.08
2018-10-21T00:56:03.435Z,58.22
2018-10-21T00:58:35.769Z,58.17
2018-10-21T01:01:05.034Z,58.55
2018-10-21T01:03:34.110Z,58.85
2018-10-21T01:06:05.953Z,58.75
2018-10-21T01:08:34.882Z,58.99
2018-10-21T01:11:03.898Z,59.11
2018-10-21T01:13:32.885Z,59.05
2018-10-21T01:16:01.797Z,59.27
2018-10-21T01:18:30.740Z,58.92
2018-10-21T01:20:59.677Z,59.37
2018-10-21T01:23:28.600Z,59.14
2018-10-21T01:25:57.521Z,59.23
2018-10-21T01:28:26.443Z,59.64
2018-10-21T01:30:55.372Z,59.71
2018-10-21T01:33:24.278Z,59.60
2018-10-21T01:35:53.218Z,59.78
2018-10-21T01:38:22.148Z,59.29
2018-10-21T01:40:54.409Z,59.37
2018-10-21T01:43:25.521Z,59.65
2018-10-21T01:45:54.484Z,60.08
2018-10-21T01:48:24.520Z,60.68
2018-10-21T01:50:53.541Z,60.91
2018-10-21T01:53:23.025Z,60.94
2018-10-21T01:55:51.988Z,60.90
2018-10-21T01:58:20.893Z,60.79
2018-10-21T02:00:49.834Z,60.57
2018-10-21T02:03:18.810Z,60.69
2018-10-21T02:05:48.293Z,60.69
2018-10-21T02:08:17.226Z,60.62
2018-10-21T02:10:46.149Z,60.55
2018-10-21T02:13:15.102Z,60.16
2018-10-21T02:15:44.034Z,60.46
2018-10-21T02:18:12.963Z,60.38
2018-10-21T02:20:41.940Z,60.55
2018-10-21T02:23:10.858Z,60.50
2018-10-21T02:25:39.805Z,60.46
2018-10-21T02:28:09.103Z,60.60
2018-10-21T02:30:38.039Z,60.89
2018-10-21T02:33:06.982Z,60.65
2018-10-21T02:35:35.874Z,60.71
2018-10-21T02:38:05.131Z,60.92
2018-10-21T02:41:43.854Z,61.00
2018-10-21T02:44:18.011Z,61.60
2018-10-21T02:46:47.690Z,61.95
2018-10-21T02:49:17.253Z,61.92
2018-10-21T02:51:51.447Z,61.99
2018-10-21T02:54:24.626Z,62.25
2018-10-21T02:56:53.712Z,62.41
2018-10-21T02:59:23.050Z,62.28
2018-10-21T03:01:51.990Z,62.21
2018-10-21T03:04:21.071Z,61.80
2018-10-21T03:06:50.291Z,61.70
2018-10-21T03:09:19.303Z,61.79
2018-10-21T03:11:48.170Z,61.66
2018-10-21T03:14:17.074Z,61.85
2018-10-21T03:16:46.025Z,61.54
2018-10-21T03:19:14.959Z,61.40
2018-10-21T03:21:43.909Z,61.40
2018-10-21T03:24:12.824Z,61.54
2018-10-21T03:26:41.762Z,61.51
2018-10-21T03:29:10.766Z,61.77
2018-10-21T03:31:39.702Z,61.57
2018-10-21T03:34:08.743Z,61.72
2018-10-21T03:36:38.280Z,61.84
2018-10-21T03:39:08.650Z,61.64
2018-10-21T03:41:37.607Z,62.16
2018-10-21T03:44:06.661Z,61.67
2018-10-21T03:46:35.572Z,62.03
2018-10-21T03:49:04.493Z,61.93
2018-10-21T03:51:33.422Z,61.86
2018-10-21T03:54:02.361Z,61.78
2018-10-21T03:56:31.273Z,61.69
2018-10-21T03:59:00.246Z,61.79
2018-10-21T04:01:29.149Z,61.90
2018-10-21T04:03:58.135Z,62.00
2018-10-21T04:06:27.002Z,62.32
2018-10-21T04:08:55.917Z,62.44
2018-10-21T04:11:24.837Z,62.11
2018-10-21T04:13:53.786Z,62.17
2018-10-21T04:16:22.714Z,62.12
2018-10-21T04:18:51.676Z,62.13
2018-10-21T04:21:21.258Z,61.98
2018-10-21T04:23:50.181Z,62.42
2018-10-21T04:26:19.133Z,62.32
2018-10-21T04:28:48.083Z,62.34
2018-10-21T04:31:17.006Z,62.23
2018-10-21T04:33:46.569Z,62.15
2018-10-21T04:36:18.194Z,62.17
2018-10-21T04:40:06.045Z,62.58
2018-10-21T04:42:34.921Z,62.53
2018-10-21T04:45:04.093Z,62.69
2018-10-21T04:47:33.024Z,63.11
2018-10-21T04:50:01.963Z,62.71
2018-10-21T04:52:31.614Z,63.12
2018-10-21T04:55:05.654Z,62.90
2018-10-21T04:57:35.065Z,62.68
2018-10-21T05:00:04.089Z,62.66
2018-10-21T05:02:33.005Z,62.85
2018-10-21T05:05:01.949Z,63.23
2018-10-21T05:07:30.917Z,63.32
2018-10-21T05:09:59.840Z,63.83
2018-10-21T05:12:28.733Z,64.01
2018-10-21T05:14:57.648Z,64.03
2018-10-21T05:17:26.594Z,64.39
2018-10-21T05:19:55.517Z,64.27
2018-10-21T05:22:24.422Z,64.17
2018-10-21T05:24:53.384Z,64.28
2018-10-21T05:27:22.313Z,64.01
2018-10-21T05:29:51.258Z,64.66
2018-10-21T05:32:20.174Z,64.65
2018-10-21T05:34:49.129Z,64.08
2018-10-21T05:37:18.056Z,64.68
2018-10-21T05:39:46.998Z,64.61
2018-10-21T05:42:15.934Z,64.37
2018-10-21T05:44:44.866Z,65.21
2018-10-21T05:47:13.819Z,64.76
2018-10-21T05:49:42.704Z,64.64
2018-10-21T05:52:11.737Z,64.36
2018-10-21T05:54:42.141Z,64.43
2018-10-21T05:57:11.065Z,64.06
2018-10-21T05:59:39.973Z,64.44
2018-10-21T06:02:08.916Z,64.24
2018-10-21T06:04:37.833Z,63.68
2018-10-21T06:07:06.767Z,64.04
2018-10-21T06:09:35.677Z,63.83
2018-10-21T06:12:04.820Z,63.91
2018-10-21T06:14:33.734Z,64.02
2018-10-21T06:17:20.598Z,63.84
2018-10-21T06:19:55.854Z,63.57
2018-10-21T06:22:24.769Z,64.96
2018-10-21T06:24:53.714Z,65.02
2018-10-21T06:27:22.629Z,65.68
2018-10-21T06:29:51.557Z,66.19
2018-10-21T06:32:20.495Z,65.83
2018-10-21T06:34:50.281Z,66.18
2018-10-21T06:37:19.229Z,65.81
2018-10-21T06:39:48.141Z,65.96
2018-10-21T06:42:17.090Z,66.19
2018-10-21T06:44:46.001Z,66.07
2018-10-21T06:47:14.954Z,65.70
2018-10-21T06:49:43.881Z,65.61
2018-10-21T06:52:13.029Z,65.53
2018-10-21T06:54:42.018Z,66.19
2018-10-21T06:57:11.114Z,66.12
2018-10-21T06:59:39.893Z,67.08
2018-10-21T07:02:08.835Z,66.89
2018-10-21T07:04:37.816Z,67.03
2018-10-21T07:07:06.692Z,66.97
2018-10-21T07:09:35.606Z,66.99
2018-10-21T07:12:04.806Z,67.17
2018-10-21T07:14:33.709Z,67.20
2018-10-21T07:17:02.633Z,67.33
2018-10-21T07:19:31.585Z,67.68
2018-10-21T07:22:00.884Z,67.84
2018-10-21T07:24:29.806Z,67.97
2018-10-21T07:26:58.733Z,67.68
2018-10-21T07:29:27.688Z,67.76
2018-10-21T07:31:56.635Z,67.70
2018-10-21T07:34:25.554Z,67.84
2018-10-21T07:36:54.521Z,67.38
2018-10-21T07:39:23.430Z,67.34
2018-10-21T07:41:52.409Z,67.39
2018-10-21T07:44:21.349Z,67.46
2018-10-21T07:46:50.361Z,67.84
2018-10-21T07:49:19.298Z,68.59
2018-10-21T07:51:48.246Z,68.41
2018-10-21T07:54:17.162Z,68.73
2018-10-21T07:56:46.116Z,68.47
2018-10-21T07:59:15.279Z,68.07
2018-10-21T08:01:44.241Z,67.96
2018-10-21T08:04:13.247Z,67.98
2018-10-21T08:06:53.478Z,68.33
2018-10-21T08:09:22.405Z,67.46
2018-10-21T08:11:51.386Z,67.62
2018-10-21T08:14:20.313Z,67.81
2018-10-21T08:16:49.387Z,67.47
2018-10-21T08:19:18.369Z,67.64
2018-10-21T08:21:47.307Z,67.40
2018-10-21T08:24:16.228Z,67.27
2018-10-21T08:26:45.147Z,67.17
2018-10-21T08:29:14.102Z,66.65
2018-10-21T08:31:43.006Z,66.48
2018-10-21T08:34:11.969Z,66.55
2018-10-21T08:36:41.140Z,65.88
2018-10-21T08:39:10.078Z,65.60
2018-10-21T08:41:38.993Z,65.32
2018-10-21T08:44:07.950Z,65.47
2018-10-21T08:46:36.892Z,65.29
2018-10-21T08:49:05.850Z,64.97
2018-10-21T08:51:34.737Z,64.36
2018-10-21T08:54:03.682Z,64.17
2018-10-21T08:56:32.613Z,63.91
2018-10-21T08:59:02.294Z,63.22
2018-10-21T09:01:31.212Z,63.74
2018-10-21T09:04:00.912Z,62.80
2018-10-21T09:06:29.849Z,62.88
2018-10-21T09:08:58.750Z,62.06
2018-10-21T09:11:27.677Z,61.88
2018-10-21T09:13:56.614Z,62.02
2018-10-21T09:16:25.633Z,62.73
2018-10-21T09:18:54.506Z,62.09
2018-10-21T09:21:23.457Z,61.78
2018-10-21T09:23:52.389Z,62.17
2018-10-21T09:26:21.314Z,61.86
2018-10-21T09:28:50.242Z,61.01
2018-10-21T09:31:19.171Z,61.46
2018-10-21T09:33:48.085Z,61.45
2018-10-21T09:36:17.045Z,61.75
2018-10-21T09:38:45.970Z,61.10
2018-10-21T09:41:14.918Z,60.98
2018-10-21T09:43:43.894Z,60.37
2018-10-21T09:46:12.908Z,59.88
2018-10-21T09:48:41.775Z,60.34
2018-10-21T09:51:11.724Z,59.40
2018-10-21T09:53:40.665Z,60.40
2018-10-21T09:56:09.611Z,59.52
2018-10-21T09:58:38.620Z,60.03
2018-10-21T10:02:14.626Z,60.04
2018-10-21T10:04:43.542Z,59.70
2018-10-21T10:07:12.555Z,59.58
2018-10-21T10:09:41.445Z,60.03
2018-10-21T10:12:10.393Z,59.20
2018-10-21T10:14:39.343Z,58.96
2018-10-21T10:17:08.277Z,58.36
2018-10-21T10:19:37.242Z,59.55
2018-10-21T10:22:06.305Z,58.59
2018-10-21T10:24:35.161Z,58.75
2018-10-21T10:27:04.131Z,58.85
2018-10-21T10:29:33.065Z,57.99
2018-10-21T10:32:02.029Z,58.24
2018-10-21T10:34:30.980Z,57.53
2018-10-21T10:36:59.971Z,57.73
2018-10-21T10:39:28.854Z,57.88
2018-10-21T10:41:57.925Z,57.19
2018-10-21T10:44:26.729Z,57.40
2018-10-21T10:46:55.684Z,57.95
2018-10-21T10:49:24.597Z,57.69
2018-10-21T10:51:53.563Z,57.74
2018-10-21T10:54:22.477Z,57.25
2018-10-21T10:56:51.432Z,58.59
2018-10-21T10:59:20.357Z,57.78
2018-10-21T11:01:49.298Z,57.30
2018-10-21T11:04:18.309Z,57.48
2018-10-21T11:06:48.256Z,57.42
2018-10-21T11:09:17.021Z,56.69
2018-10-21T11:11:45.975Z,56.84
2018-10-21T11:14:14.906Z,56.51
2018-10-21T11:16:43.829Z,56.25
2018-10-21T11:19:12.801Z,56.36
2018-10-21T11:21:41.749Z,54.87
2018-10-21T11:24:10.753Z,54.49
2018-10-21T11:26:39.674Z,54.80
2018-10-21T11:29:08.613Z,54.02
2018-10-21T11:31:37.533Z,52.98
2018-10-21T11:34:06.550Z,52.94
2018-10-21T11:36:35.448Z,53.25
2018-10-21T11:39:05.058Z,52.73
2018-10-21T11:41:33.973Z,52.50
2018-10-21T11:44:02.979Z,52.07
2018-10-21T11:46:32.336Z,51.96
2018-10-21T11:49:01.249Z,51.82
2018-10-21T11:51:30.322Z,50.39
2018-10-21T11:53:59.313Z,50.87
2018-10-21T11:56:28.258Z,51.65
2018-10-21T11:58:57.229Z,49.33
2018-10-21T12:01:26.148Z,49.61
2018-10-21T12:03:55.208Z,50.18
2018-10-21T12:06:24.289Z,50.25
2018-10-21T12:08:53.222Z,50.38
2018-10-21T12:11:22.125Z,49.26
2018-10-21T12:13:51.081Z,49.21
2018-10-21T12:16:20.107Z,49.56
2018-10-21T12:18:49.076Z,49.23
2018-10-21T12:21:18.082Z,48.50
2018-10-21T12:23:47.006Z,48.11
2018-10-21T12:26:15.913Z,48.03
2018-10-21T12:28:44.834Z,47.20
2018-10-21T12:31:13.839Z,46.93
2018-10-21T12:33:44.099Z,48.07
2018-10-21T12:36:14.642Z,47.91
2018-10-21T12:38:43.589Z,47.80
2018-10-21T12:41:12.900Z,48.08
2018-10-21T12:43:42.413Z,48.20
2018-10-21T12:46:11.516Z,47.47
2018-10-21T12:48:40.349Z,48.91
2018-10-21T12:51:09.293Z,48.66
2018-10-21T12:53:38.286Z,47.96
2018-10-21T12:56:08.842Z,48.53
2018-10-21T12:58:38.466Z,48.51
2018-10-21T13:01:07.776Z,47.71
2018-10-21T13:03:36.767Z,48.23
2018-10-21T13:06:05.792Z,48.61
2018-10-21T13:08:35.692Z,48.43
2018-10-21T13:11:04.629Z,48.48
2018-10-21T13:13:33.565Z,47.69
2018-10-21T13:16:02.841Z,48.22
2018-10-21T13:18:31.753Z,47.74
2018-10-21T13:21:00.714Z,47.30
2018-10-21T13:23:29.814Z,47.27
2018-10-21T13:25:58.753Z,46.39
2018-10-21T13:28:27.802Z,46.11
2018-10-21T13:30:56.683Z,46.54
2018-10-21T13:33:25.576Z,47.11
2018-10-21T13:35:54.532Z,46.90
2018-10-21T13:38:23.821Z,45.56
2018-10-21T13:40:53.855Z,45.79
2018-10-21T13:43:22.970Z,46.63
2018-10-21T13:45:52.076Z,46.93
2018-10-21T13:48:20.893Z,46.24
2018-10-21T13:50:50.041Z,46.14
2018-10-21T13:53:18.999Z,45.74
2018-10-21T13:55:47.901Z,46.37
2018-10-21T13:58:17.102Z,46.93
2018-10-21T14:00:46.127Z,47.38
2018-10-21T14:03:14.901Z,46.56
2018-10-21T14:05:43.890Z,46.90
2018-10-21T14:08:12.854Z,46.65
2018-10-21T14:10:41.777Z,46.34
2018-10-21T14:13:10.735Z,46.94
2018-10-21T14:15:40.305Z,47.76
2018-10-21T14:18:09.193Z,47.06
2018-10-21T14:20:38.777Z,46.63
2018-10-21T14:23:07.727Z,46.38
2018-10-21T14:25:36.698Z,46.17
2018-10-21T14:28:05.929Z,46.06
2018-10-21T14:30:34.917Z,46.56
2018-10-21T14:33:03.816Z,47.58
2018-10-21T14:35:32.797Z,47.00
2018-10-21T14:38:01.820Z,47.64
2018-10-21T14:40:30.669Z,46.50
2018-10-21T14:42:59.797Z,47.48
2018-10-21T14:45:28.768Z,47.25
2018-10-21T14:47:57.694Z,47.46
2018-10-21T14:50:26.565Z,47.43
2018-10-21T14:52:55.554Z,47.76
2018-10-21T14:55:24.505Z,46.97
2018-10-21T14:57:53.436Z,47.01
2018-10-21T15:00:22.451Z,47.28
2018-10-21T15:02:51.301Z,48.10
2018-10-21T15:05:20.569Z,47.83
2018-10-21T15:07:49.502Z,48.32
2018-10-21T15:10:18.521Z,47.87
2018-10-21T15:12:47.745Z,48.24
2018-10-21T15:15:16.669Z,48.49
2018-10-21T15:17:45.665Z,48.10
2018-10-21T15:20:14.674Z,48.23
2018-10-21T15:22:43.538Z,48.97
2018-10-21T15:25:12.940Z,49.28
2018-10-21T15:27:42.543Z,49.71
2018-10-21T15:30:12.664Z,49.89
2018-10-21T15:32:41.856Z,49.22
2018-10-21T15:35:10.913Z,49.52
2018-10-21T15:37:39.881Z,50.22
2018-10-21T15:40:09.764Z,49.45
2018-10-21T15:42:38.740Z,49.91
2018-10-21T15:45:09.682Z,49.65
2018-10-21T15:47:39.098Z,49.77
2018-10-21T15:50:08.697Z,49.93
2018-10-21T15:52:37.513Z,50.37
2018-10-21T15:55:07.438Z,50.53
2018-10-21T15:57:36.398Z,50.04
2018-10-21T16:00:07.464Z,50.39
2018-10-21T16:02:37.219Z,50.48
2018-10-21T16:05:07.974Z,51.30
2018-10-21T16:07:36.917Z,50.89
2018-10-21T16:10:07.040Z,51.26
2018-10-21T16:12:36.362Z,51.23
2018-10-21T16:15:09.510Z,51.52
2018-10-21T16:17:38.590Z,51.77
2018-10-21T16:20:08.131Z,52.53
2018-10-21T16:22:38.675Z,52.10
2018-10-21T16:25:10.750Z,52.23
2018-10-21T16:27:40.421Z,51.91
2018-10-21T16:30:11.536Z,51.69
2018-10-21T16:32:41.268Z,52.23
2018-10-21T16:35:10.870Z,52.35
2018-10-21T16:37:40.478Z,52.22
2018-10-21T16:40:12.100Z,52.53
2018-10-21T16:42:41.411Z,53.10
2018-10-21T16:45:11.732Z,53.07
2018-10-21T16:47:40.900Z,53.16
2018-10-21T16:50:12.971Z,53.27
2018-10-21T16:52:42.987Z,53.30
2018-10-21T16:55:12.686Z,53.60
2018-10-21T16:57:41.925Z,54.01
2018-10-21T17:00:13.834Z,54.16
2018-10-21T17:02:43.145Z,54.50
2018-10-21T17:05:12.412Z,54.48
2018-10-21T17:07:41.313Z,54.72
2018-10-21T17:10:11.392Z,55.21
2018-10-21T17:12:40.085Z,54.85
2018-10-21T17:15:10.464Z,55.36
2018-10-21T17:17:40.519Z,54.89
2018-10-21T17:20:11.400Z,55.04
2018-10-21T17:22:42.205Z,56.08
2018-10-21T17:25:11.353Z,55.30
2018-10-21T17:27:40.869Z,55.40
2018-10-21T17:30:11.946Z,56.17
2018-10-21T17:32:41.142Z,55.48
2018-10-21T17:35:10.959Z,56.03
2018-10-21T17:37:40.260Z,56.14
2018-10-21T17:40:10.293Z,55.71
2018-10-21T17:42:39.495Z,56.09
2018-10-21T17:45:10.614Z,55.85
2018-10-21T17:47:39.698Z,56.10
2018-10-21T17:50:10.034Z,55.61
2018-10-21T17:52:39.390Z,56.16
2018-10-21T17:55:08.604Z,56.19
2018-10-21T17:57:37.634Z,56.40
2018-10-21T18:00:08.626Z,56.40
2018-10-21T18:02:37.688Z,56.26
2018-10-21T18:05:08.869Z,56.60
2018-10-21T18:07:38.122Z,56.04
2018-10-21T18:10:07.365Z,56.42
2018-10-21T18:12:36.727Z,56.40
2018-10-21T18:15:06.834Z,56.72
2018-10-21T18:17:35.815Z,57.14
2018-10-21T18:20:05.212Z,56.97
2018-10-21T18:22:34.244Z,57.01
2018-10-21T18:25:03.243Z,57.18
2018-10-21T18:27:32.725Z,56.88
2018-10-21T18:30:01.794Z,56.95
2018-10-21T18:32:30.805Z,56.91
2018-10-21T18:35:00.014Z,56.88
2018-10-21T18:37:29.008Z,56.96
2018-10-21T18:39:57.929Z,57.30
2018-10-21T18:42:26.893Z,57.07
2018-10-21T18:44:55.813Z,56.97
2018-10-21T18:47:25.082Z,57.08
2018-10-21T18:49:54.026Z,57.12
2018-10-21T18:52:22.977Z,56.75
2018-10-21T18:54:51.907Z,56.85
2018-10-21T18:57:20.878Z,57.18
2018-10-21T18:59:50.294Z,57.50
2018-10-21T19:02:19.297Z,57.42
2018-10-21T19:04:48.249Z,57.47
2018-10-21T19:07:17.267Z,57.49
2018-10-21T19:09:46.126Z,57.71
2018-10-21T19:12:15.077Z,57.71
2018-10-21T19:14:44.146Z,57.75
2018-10-21T19:17:13.093Z,57.70
2018-10-21T19:19:42.033Z,58.02
2018-10-21T19:22:11.112Z,58.04
2018-10-21T19:24:39.986Z,58.07
2018-10-21T19:27:08.947Z,58.08
2018-10-21T19:29:37.897Z,58.03
2018-10-21T19:32:06.882Z,58.32
2018-10-21T19:34:36.593Z,58.79
2018-10-21T19:37:06.262Z,58.92
2018-10-21T19:39:35.378Z,59.08
2018-10-21T19:42:04.317Z,59.12
2018-10-21T19:44:33.296Z,59.24
2018-10-21T19:47:02.206Z,59.24
2018-10-21T19:49:31.199Z,59.02
2018-10-21T19:52:00.177Z,58.80
2018-10-21T19:54:29.044Z,58.90
2018-10-21T19:56:57.977Z,58.70
2018-10-21T19:59:26.915Z,58.36
2018-10-21T20:01:55.841Z,58.12
2018-10-21T20:04:24.780Z,58.13
2018-10-21T20:06:53.814Z,58.52
2018-10-21T20:09:22.637Z,58.28
2018-10-21T20:11:51.594Z,58.48
2018-10-21T20:14:20.528Z,58.73
2018-10-21T20:16:49.423Z,59.03
2018-10-21T20:19:18.447Z,58.89
2018-10-21T20:21:47.358Z,59.19
2018-10-21T20:24:17.239Z,59.17
2018-10-21T20:26:47.205Z,59.19
2018-10-21T20:29:16.149Z,59.39
2018-10-21T20:31:45.085Z,59.40
2018-10-21T20:34:14.035Z,59.45
2018-10-21T20:36:42.942Z,59.44
2018-10-21T20:39:11.925Z,59.61
2018-10-21T20:41:40.827Z,59.28
2018-10-21T20:44:09.749Z,59.21
2018-10-21T20:46:38.681Z,59.22
2018-10-21T20:49:07.590Z,59.51
2018-10-21T20:51:36.625Z,59.75
2018-10-21T20:54:05.885Z,59.81
2018-10-21T20:56:34.718Z,59.88
2018-10-21T20:59:03.629Z,59.61
2018-10-21T21:01:32.573Z,59.94
2018-10-21T21:04:01.514Z,59.50
2018-10-21T21:06:30.445Z,59.13
2018-10-21T21:09:00.409Z,58.95
2018-10-21T21:11:29.546Z,58.78
2018-10-21T21:13:58.448Z,58.88
2018-10-21T21:16:27.377Z,59.02
2018-10-21T21:18:56.313Z,59.56
2018-10-21T21:21:25.228Z,59.45
2018-10-21T21:23:54.196Z,59.19
2018-10-21T21:26:23.094Z,59.03
2018-10-21T21:28:52.010Z,59.03
2018-10-21T21:31:20.964Z,58.82
2018-10-21T21:33:49.884Z,58.90
2018-10-21T21:36:18.915Z,59.06
2018-10-21T21:38:48.587Z,59.09
2018-10-21T21:41:17.549Z,59.30
2018-10-21T21:43:46.465Z,59.34
2018-10-21T21:46:15.468Z,59.51
2018-10-21T21:48:44.331Z,59.30
2018-10-21T21:51:13.813Z,58.97
2018-10-21T21:53:42.705Z,59.04
2018-10-21T21:56:11.633Z,59.09
2018-10-21T21:58:40.545Z,59.17
2018-10-21T22:01:09.490Z,59.08
2018-10-21T22:03:38.397Z,58.72
2018-10-21T22:06:07.318Z,59.49
2018-10-21T22:08:36.229Z,59.46
2018-10-21T22:11:05.320Z,59.66
2018-10-21T22:13:35.153Z,59.93
2018-10-21T22:16:05.277Z,60.53
2018-10-21T22:18:34.232Z,60.67
2018-10-21T22:21:03.149Z,61.00
2018-10-21T22:23:32.097Z,60.85
2018-10-21T22:26:01.036Z,61.33
2018-10-21T22:28:29.984Z,61.33
2018-10-21T22:30:58.889Z,61.36
2018-10-21T22:33:27.829Z,61.57
2018-10-21T22:35:56.767Z,62.05
2018-10-21T22:38:25.698Z,62.65
2018-10-21T22:40:54.634Z,62.56
2018-10-21T22:43:23.561Z,62.72
2018-10-21T22:45:52.465Z,63.00
2018-10-21T22:48:21.402Z,63.21
2018-10-21T22:50:50.304Z,63.16
2018-10-21T22:53:19.241Z,62.53
2018-10-21T22:55:48.144Z,63.08
2018-10-21T22:58:17.199Z,63.17
2018-10-21T23:00:46.001Z,62.83
2018-10-21T23:03:14.961Z,62.72
2018-10-21T23:05:43.865Z,62.49
2018-10-21T23:08:12.789Z,62.24
2018-10-21T23:10:41.706Z,62.77
2018-10-21T23:13:10.625Z,62.36
2018-10-21T23:15:39.538Z,63.23
2018-10-21T23:18:08.542Z,63.21
2018-10-21T23:20:37.402Z,62.84
2018-10-21T23:23:06.365Z,62.87
2018-10-21T23:25:35.862Z,63.24
2018-10-21T23:28:04.856Z,62.90
2018-10-21T23:30:33.718Z,63.19
2018-10-21T23:33:02.642Z,62.99
2018-10-21T23:35:31.565Z,63.19
2018-10-21T23:38:00.494Z,63.60
2018-10-21T23:40:29.401Z,63.19
2018-10-21T23:42:58.313Z,63.37
2018-10-21T23:45:27.233Z,63.71
2018-10-21T23:47:56.153Z,63.72
2018-10-21T23:50:25.069Z,63.75
2018-10-21T23:52:53.973Z,63.45
2018-10-21T23:55:22.929Z,63.24
2018-10-21T23:57:51.854Z,63.17
